Time;durP1;ratioP1;P1;durP2;ratioP2;P2;SDS_P1;SDS_P2;PMS_P1;PMS_P2;Temp;Humidity;BMP_temperature;BMP_pressure;BME280_temperature;BME280_humidity;BME280_pressure;Samples;Min_cycle;Max_cycle;Signal;HPM_P1;HPM_P2
2023/09/22 00:01:21;;;;;;;3.00;1.70;;;;;;;;;;7366426;19;20002;-69
2023/09/22 00:03:47;;;;;;;4.10;1.90;;;;;;;;;;7366813;19;20030;-69
2023/09/22 00:06:13;;;;;;;3.42;1.77;;;;;;;;;;7365239;19;20382;-69
2023/09/22 00:08:39;;;;;;;2.90;1.65;;;;;;;;;;7366721;19;20010;-69
2023/09/22 00:11:07;;;;;;;3.35;1.73;;;;;;;;;;7389033;19;20359;-69
2023/09/22 00:13:33;;;;;;;2.40;1.58;;;;;;;;;;7363606;19;20143;-69
2023/09/22 00:15:58;;;;;;;3.40;1.80;;;;;;;;;;7365837;19;20739;-69
2023/09/22 00:18:23;;;;;;;3.65;1.83;;;;;;;;;;7366396;19;20009;-69
2023/09/22 00:20:49;;;;;;;2.53;1.70;;;;;;;;;;7366133;19;20082;-69
2023/09/22 00:23:15;;;;;;;3.08;1.90;;;;;;;;;;7383851;19;20033;-69
2023/09/22 00:25:40;;;;;;;2.60;1.55;;;;;;;;;;7377642;19;20010;-69
2023/09/22 00:28:07;;;;;;;4.68;1.83;;;;;;;;;;7367562;19;20006;-68
2023/09/22 00:30:32;;;;;;;1.80;1.50;;;;;;;;;;7366978;19;20007;-68
2023/09/22 00:32:58;;;;;;;5.85;1.80;;;;;;;;;;7365826;19;20361;-69
2023/09/22 00:35:23;;;;;;;2.17;1.63;;;;;;;;;;7366055;19;19999;-69
2023/09/22 00:37:50;;;;;;;2.55;1.60;;;;;;;;;;7387339;19;20774;-69
2023/09/22 00:40:15;;;;;;;2.92;1.80;;;;;;;;;;7365764;19;20010;-69
2023/09/22 00:42:40;;;;;;;5.70;2.15;;;;;;;;;;7364283;19;20007;-69
2023/09/22 00:45:06;;;;;;;4.63;2.00;;;;;;;;;;7364358;19;20022;-69
2023/09/22 00:47:33;;;;;;;4.05;1.85;;;;;;;;;;7363321;19;20021;-69
2023/09/22 00:49:58;;;;;;;6.53;1.90;;;;;;;;;;7383899;19;19998;-69
2023/09/22 00:52:25;;;;;;;4.22;1.88;;;;;;;;;;7361887;19;20078;-69
2023/09/22 00:54:51;;;;;;;3.45;1.70;;;;;;;;;;7369617;19;20062;-69
2023/09/22 00:57:17;;;;;;;2.75;1.73;;;;;;;;;;7369627;19;20013;-69
2023/09/22 00:59:44;;;;;;;4.00;1.98;;;;;;;;;;7369713;19;20007;-68
2023/09/22 01:02:11;;;;;;;3.83;1.77;;;;;;;;;;7389730;19;20014;-70
2023/09/22 01:04:36;;;;;;;3.35;1.80;;;;;;;;;;7371752;19;20499;-69
2023/09/22 01:07:02;;;;;;;3.58;1.77;;;;;;;;;;7371897;19;19998;-69
2023/09/22 01:09:27;;;;;;;2.42;1.60;;;;;;;;;;7371445;19;20375;-70
2023/09/22 01:11:52;;;;;;;3.75;2.00;;;;;;;;;;7370680;19;20019;-69
2023/09/22 01:14:18;;;;;;;2.58;1.80;;;;;;;;;;7372725;19;20460;-69
2023/09/22 01:16:44;;;;;;;4.65;1.90;;;;;;;;;;7394213;19;20468;-69
2023/09/22 01:19:14;;;;;;;6.18;2.00;;;;;;;;;;7372675;19;20014;-69
2023/09/22 01:21:39;;;;;;;4.73;1.87;;;;;;;;;;7370375;19;20412;-69
2023/09/22 01:24:05;;;;;;;2.60;1.70;;;;;;;;;;7369208;19;20006;-69
2023/09/22 01:26:30;;;;;;;3.83;2.00;;;;;;;;;;7369871;19;20570;-69
2023/09/22 01:28:56;;;;;;;3.83;1.80;;;;;;;;;;7393728;19;20010;-68
2023/09/22 01:31:21;;;;;;;3.03;1.52;;;;;;;;;;7371204;19;20007;-68
2023/09/22 01:33:47;;;;;;;3.22;1.85;;;;;;;;;;7369527;19;20445;-69
2023/09/22 01:36:15;;;;;;;2.83;1.80;;;;;;;;;;7371282;19;20472;-68
2023/09/22 01:38:41;;;;;;;3.22;1.70;;;;;;;;;;7372135;19;20014;-68
2023/09/22 01:41:06;;;;;;;3.28;1.80;;;;;;;;;;7393418;19;19998;-68
2023/09/22 01:43:32;;;;;;;4.30;2.00;;;;;;;;;;7368253;19;20081;-69
2023/09/22 01:45:58;;;;;;;3.20;1.98;;;;;;;;;;7370971;19;20025;-67
2023/09/22 01:48:23;;;;;;;2.97;1.90;;;;;;;;;;7371530;19;20461;-68
2023/09/22 01:50:48;;;;;;;3.35;1.70;;;;;;;;;;7371787;19;20083;-67
2023/09/22 01:53:14;;;;;;;2.92;1.73;;;;;;;;;;7391974;19;20066;-67
2023/09/22 01:55:47;;;;;;;4.78;2.10;;;;;;;;;;7370085;19;20040;-69
2023/09/22 01:58:12;;;;;;;5.30;1.80;;;;;;;;;;7369225;19;20017;-69
2023/09/22 02:00:38;;;;;;;2.67;1.70;;;;;;;;;;7369483;19;20014;-69
2023/09/22 02:03:05;;;;;;;4.20;2.03;;;;;;;;;;7372874;19;20015;-69
2023/09/22 02:05:31;;;;;;;4.53;1.83;;;;;;;;;;7377463;19;20418;-69
2023/09/22 02:07:57;;;;;;;3.30;1.90;;;;;;;;;;7399770;19;20003;-69
2023/09/22 02:10:22;;;;;;;2.55;1.80;;;;;;;;;;7370504;19;20017;-69
2023/09/22 02:12:48;;;;;;;2.47;1.63;;;;;;;;;;7368448;19;20166;-69
2023/09/22 02:15:13;;;;;;;3.05;1.90;;;;;;;;;;7370865;19;20061;-69
2023/09/22 02:17:41;;;;;;;3.78;2.13;;;;;;;;;;7370461;19;20013;-69
2023/09/22 02:22:43;;;;;;;5.38;2.40;;;;;;;;;;7368365;19;20026;-71
2023/09/22 02:25:09;;;;;;;3.00;1.85;;;;;;;;;;7369779;19;20608;-69
2023/09/22 02:27:35;;;;;;;3.83;2.00;;;;;;;;;;7368169;19;20027;-69
2023/09/22 02:30:00;;;;;;;3.20;2.08;;;;;;;;;;7370514;19;20010;-69
2023/09/22 02:32:26;;;;;;;2.85;1.83;;;;;;;;;;7368174;19;20436;-69
2023/09/22 02:34:52;;;;;;;2.58;1.63;;;;;;;;;;7391078;19;19999;-68
2023/09/22 02:37:17;;;;;;;3.40;1.92;;;;;;;;;;7369087;19;20423;-68
2023/09/22 02:39:43;;;;;;;4.57;2.08;;;;;;;;;;7369939;19;20015;-68
2023/09/22 02:42:08;;;;;;;3.67;2.00;;;;;;;;;;7368979;19;20775;-68
2023/09/22 02:44:34;;;;;;;5.57;1.95;;;;;;;;;;7370373;19;20012;-68
2023/09/22 02:47:00;;;;;;;5.60;2.25;;;;;;;;;;7391610;19;20013;-68
2023/09/22 02:49:26;;;;;;;2.75;2.00;;;;;;;;;;7368487;19;20161;-68
2023/09/22 02:51:52;;;;;;;6.85;2.30;;;;;;;;;;7369686;19;20028;-68
2023/09/22 02:54:17;;;;;;;4.03;1.90;;;;;;;;;;7369042;19;20010;-68
2023/09/22 02:56:42;;;;;;;4.13;2.10;;;;;;;;;;7368785;19;20635;-68
2023/09/22 02:59:08;;;;;;;4.25;1.98;;;;;;;;;;7390453;19;20514;-68
2023/09/22 03:01:36;;;;;;;4.32;2.10;;;;;;;;;;7368742;19;20022;-68
2023/09/22 03:04:03;;;;;;;6.00;1.90;;;;;;;;;;7369164;19;20072;-68
2023/09/22 03:06:28;;;;;;;3.58;2.13;;;;;;;;;;7366461;19;20010;-68
2023/09/22 03:08:54;;;;;;;4.72;2.20;;;;;;;;;;7369122;19;20023;-68
2023/09/22 03:11:19;;;;;;;3.15;1.98;;;;;;;;;;7368578;19;20449;-68
2023/09/22 03:13:44;;;;;;;4.45;2.05;;;;;;;;;;7387802;19;19999;-69
2023/09/22 03:16:09;;;;;;;3.60;2.15;;;;;;;;;;7366713;19;20006;-68
2023/09/22 03:18:35;;;;;;;3.92;2.15;;;;;;;;;;7368787;19;20030;-68
2023/09/22 03:21:00;;;;;;;4.93;2.10;;;;;;;;;;7368215;19;20010;-70
2023/09/22 03:23:25;;;;;;;4.43;2.00;;;;;;;;;;7365875;19;20026;-69
2023/09/22 03:25:51;;;;;;;4.95;2.17;;;;;;;;;;7389309;19;20011;-69
2023/09/22 03:28:16;;;;;;;5.75;2.25;;;;;;;;;;7367501;19;20098;-69
2023/09/22 03:30:41;;;;;;;4.88;2.45;;;;;;;;;;7368122;19;20377;-68
2023/09/22 03:33:07;;;;;;;4.72;2.25;;;;;;;;;;7367071;19;20014;-68
2023/09/22 03:35:32;;;;;;;4.32;2.38;;;;;;;;;;7368361;19;20006;-69
2023/09/22 03:37:58;;;;;;;5.45;2.40;;;;;;;;;;7390125;19;20442;-68
2023/09/22 03:40:32;;;;;;;5.15;2.58;;;;;;;;;;7367643;19;20002;-69
2023/09/22 03:42:58;;;;;;;4.15;1.95;;;;;;;;;;7365861;19;20035;-69
2023/09/22 03:45:24;;;;;;;4.43;2.20;;;;;;;;;;7367161;19;20002;-69
2023/09/22 03:47:49;;;;;;;4.07;1.98;;;;;;;;;;7368300;19;20050;-69
2023/09/22 03:50:15;;;;;;;4.88;1.95;;;;;;;;;;7381785;19;20003;-69
2023/09/22 03:52:42;;;;;;;3.10;2.20;;;;;;;;;;7376194;19;20364;-69
2023/09/22 03:55:12;;;;;;;4.68;2.13;;;;;;;;;;7363941;19;20460;-69
2023/09/22 03:57:38;;;;;;;5.97;2.05;;;;;;;;;;7364074;19;20006;-69
2023/09/22 04:00:07;;;;;;;4.90;2.40;;;;;;;;;;7363799;19;20006;-69
2023/09/22 04:02:32;;;;;;;8.85;2.28;;;;;;;;;;7362263;19;20006;-69
2023/09/22 04:04:57;;;;;;;4.68;2.30;;;;;;;;;;7387881;19;20653;-68
2023/09/22 04:07:23;;;;;;;4.35;2.10;;;;;;;;;;7364243;19;20006;-69
2023/09/22 04:09:48;;;;;;;5.53;2.22;;;;;;;;;;7367557;19;20562;-69
2023/09/22 04:12:13;;;;;;;5.13;2.40;;;;;;;;;;7364531;19;20025;-68
2023/09/22 04:14:39;;;;;;;4.00;2.00;;;;;;;;;;7366903;19;20006;-68
2023/09/22 04:17:04;;;;;;;3.78;2.08;;;;;;;;;;7387932;19;20006;-68
2023/09/22 04:19:33;;;;;;;4.45;1.90;;;;;;;;;;7366275;19;20048;-68
2023/09/22 04:22:00;;;;;;;5.80;1.90;;;;;;;;;;7364900;19;20441;-68
2023/09/22 04:24:31;;;;;;;3.25;1.67;;;;;;;;;;7364954;19;20049;-69
2023/09/22 04:27:00;;;;;;;2.83;1.70;;;;;;;;;;7365350;19;20006;-69
2023/09/22 04:29:26;;;;;;;4.32;2.05;;;;;;;;;;7374106;19;20014;-68
2023/09/22 04:31:51;;;;;;;3.85;2.00;;;;;;;;;;7393857;19;20534;-68
2023/09/22 04:34:18;;;;;;;3.60;1.95;;;;;;;;;;7372312;19;20002;-68
2023/09/22 04:36:43;;;;;;;2.90;1.77;;;;;;;;;;7373383;19;20002;-70
2023/09/22 04:39:10;;;;;;;5.28;1.80;;;;;;;;;;7374261;19;20514;-70
2023/09/22 04:41:36;;;;;;;4.60;2.10;;;;;;;;;;7371900;19;20000;-69
2023/09/22 04:44:02;;;;;;;3.80;2.00;;;;;;;;;;7392756;19;20035;-69
2023/09/22 04:46:27;;;;;;;3.60;1.80;;;;;;;;;;7369249;19;20044;-69
2023/09/22 04:48:54;;;;;;;3.95;1.60;;;;;;;;;;7372767;19;20486;-68
2023/09/22 04:51:20;;;;;;;4.05;2.03;;;;;;;;;;7373087;19;20025;-69
2023/09/22 04:53:45;;;;;;;3.53;1.80;;;;;;;;;;7370860;19;20010;-69
2023/09/22 04:56:11;;;;;;;5.03;2.03;;;;;;;;;;7394945;19;20014;-68
2023/09/22 04:58:39;;;;;;;6.60;1.90;;;;;;;;;;7368780;19;20062;-69
2023/09/22 05:01:04;;;;;;;4.07;1.85;;;;;;;;;;7369430;19;20006;-67
2023/09/22 05:03:30;;;;;;;3.60;1.65;;;;;;;;;;7368761;19;20002;-68
2023/09/22 05:06:09;;;;;;;3.92;1.63;;;;;;;;;;7369436;19;20526;-68
2023/09/22 05:08:37;;;;;;;4.50;2.20;;;;;;;;;;7369281;19;20012;-69
2023/09/22 05:11:06;;;;;;;3.08;1.95;;;;;;;;;;7391407;19;20102;-68
2023/09/22 05:13:32;;;;;;;4.10;1.98;;;;;;;;;;7365638;19;20839;-69
2023/09/22 05:16:13;;;;;;;3.90;2.00;;;;;;;;;;7368481;19;20014;-69
2023/09/22 05:18:39;;;;;;;5.20;1.70;;;;;;;;;;7370827;19;20018;-69
2023/09/22 05:21:05;;;;;;;3.90;2.00;;;;;;;;;;7370021;19;20558;-69
2023/09/22 05:23:32;;;;;;;4.63;2.03;;;;;;;;;;7368787;19;20444;-69
2023/09/22 05:25:58;;;;;;;5.70;1.80;;;;;;;;;;7390770;19;20460;-68
2023/09/22 05:28:24;;;;;;;3.17;1.90;;;;;;;;;;7362243;19;20658;-69
2023/09/22 05:30:49;;;;;;;4.20;2.08;;;;;;;;;;7366143;19;20222;-69
2023/09/22 05:33:14;;;;;;;4.45;1.70;;;;;;;;;;7359124;19;19998;-69
2023/09/22 05:35:40;;;;;;;3.67;1.92;;;;;;;;;;7367227;19;20010;-69
2023/09/22 05:38:06;;;;;;;4.88;2.00;;;;;;;;;;7391293;19;20464;-69
2023/09/22 05:40:35;;;;;;;4.60;2.00;;;;;;;;;;7371558;19;20010;-69
2023/09/22 05:43:10;;;;;;;4.32;1.88;;;;;;;;;;7364062;19;20417;-69
2023/09/22 05:45:35;;;;;;;4.60;2.00;;;;;;;;;;7369176;19;20034;-68
2023/09/22 05:48:01;;;;;;;4.32;1.88;;;;;;;;;;7370398;19;20002;-68
2023/09/22 05:50:26;;;;;;;3.53;1.83;;;;;;;;;;7374686;19;19999;-68
2023/09/22 05:52:51;;;;;;;3.42;1.70;;;;;;;;;;7392933;19;19999;-68
2023/09/22 05:55:20;;;;;;;2.55;1.63;;;;;;;;;;7369029;19;20029;-68
2023/09/22 05:57:50;;;;;;;3.30;1.95;;;;;;;;;;7369257;19;20542;-68
2023/09/22 06:00:16;;;;;;;5.60;1.63;;;;;;;;;;7371315;19;20040;-69
2023/09/22 06:02:51;;;;;;;6.72;1.80;;;;;;;;;;7370538;19;20227;-71
2023/09/22 06:05:23;;;;;;;3.22;2.33;;;;;;;;;;7372202;19;20527;-69
2023/09/22 06:07:49;;;;;;;4.45;1.80;;;;;;;;;;7390387;19;20003;-68
2023/09/22 06:10:15;;;;;;;3.72;1.83;;;;;;;;;;7369415;19;20007;-69
2023/09/22 06:12:40;;;;;;;3.45;1.90;;;;;;;;;;7369082;19;20006;-72
2023/09/22 06:15:07;;;;;;;4.80;1.80;;;;;;;;;;7367681;19;20034;-69
2023/09/22 06:17:34;;;;;;;4.28;2.08;;;;;;;;;;7370022;19;20002;-69
2023/09/22 06:19:59;;;;;;;2.78;1.73;;;;;;;;;;7392134;19;20340;-69
2023/09/22 06:22:24;;;;;;;3.95;1.73;;;;;;;;;;7367469;19;20005;-68
2023/09/22 06:24:50;;;;;;;4.07;1.70;;;;;;;;;;7370873;19;20683;-68
2023/09/22 06:27:15;;;;;;;1.75;1.65;;;;;;;;;;7371427;19;20077;-68
2023/09/22 06:29:41;;;;;;;3.08;1.55;;;;;;;;;;7369979;19;20163;-67
2023/09/22 06:32:07;;;;;;;3.15;1.60;;;;;;;;;;7390734;19;20010;-68
2023/09/22 06:34:33;;;;;;;6.97;1.65;;;;;;;;;;7369565;19;20014;-68
2023/09/22 06:36:58;;;;;;;2.95;1.63;;;;;;;;;;7370198;19;20580;-68
2023/09/22 06:39:24;;;;;;;4.00;1.35;;;;;;;;;;7372564;19;20050;-68
2023/09/22 06:41:49;;;;;;;3.53;1.50;;;;;;;;;;7370846;19;20141;-68
2023/09/22 06:44:16;;;;;;;1.60;1.33;;;;;;;;;;7390079;19;20005;-68
2023/09/22 06:46:41;;;;;;;8.77;1.80;;;;;;;;;;7389907;19;20030;-68
2023/09/22 06:49:07;;;;;;;3.58;1.58;;;;;;;;;;7370011;19;19999;-69
2023/09/22 06:51:33;;;;;;;1.52;1.17;;;;;;;;;;7367529;19;20027;-69
2023/09/22 06:53:59;;;;;;;3.53;1.75;;;;;;;;;;7369011;19;20496;-68
2023/09/22 06:56:25;;;;;;;3.90;1.70;;;;;;;;;;7369168;19;19995;-69
2023/09/22 06:58:51;;;;;;;2.55;1.63;;;;;;;;;;7390236;19;20325;-68
2023/09/22 07:01:16;;;;;;;3.92;1.50;;;;;;;;;;7367736;19;20040;-68
2023/09/22 07:03:46;;;;;;;3.80;1.60;;;;;;;;;;7368203;19;20033;-68
2023/09/22 07:06:14;;;;;;;2.28;1.58;;;;;;;;;;7367980;19;20010;-68
2023/09/22 07:08:41;;;;;;;4.43;1.40;;;;;;;;;;7368467;19;20014;-69
2023/09/22 07:11:09;;;;;;;2.58;1.45;;;;;;;;;;7389838;19;20011;-69
2023/09/22 07:13:35;;;;;;;4.70;1.60;;;;;;;;;;7365773;19;20033;-69
2023/09/22 07:16:00;;;;;;;3.17;1.60;;;;;;;;;;7367351;19;20027;-68
2023/09/22 07:18:26;;;;;;;3.33;1.60;;;;;;;;;;7369074;19;20011;-69
2023/09/22 07:20:52;;;;;;;3.25;1.58;;;;;;;;;;7368317;19;20388;-68
2023/09/22 07:23:19;;;;;;;4.50;1.73;;;;;;;;;;7363646;19;20013;-68
2023/09/22 07:25:45;;;;;;;2.97;1.40;;;;;;;;;;7389479;19;19994;-68
2023/09/22 07:28:11;;;;;;;6.03;1.60;;;;;;;;;;7364421;19;20010;-69
2023/09/22 07:30:36;;;;;;;3.08;1.50;;;;;;;;;;7366141;19;20011;-69
2023/09/22 07:33:02;;;;;;;1.83;1.30;;;;;;;;;;7364873;19;20494;-69
2023/09/22 07:35:27;;;;;;;2.35;1.40;;;;;;;;;;7367464;19;20026;-69
2023/09/22 07:37:52;;;;;;;5.43;1.27;;;;;;;;;;7389862;19;20003;-68
2023/09/22 07:40:18;;;;;;;2.05;1.27;;;;;;;;;;7367894;19;20013;-68
2023/09/22 07:42:44;;;;;;;3.45;1.40;;;;;;;;;;7366456;19;20514;-68
2023/09/22 07:45:10;;;;;;;2.85;1.40;;;;;;;;;;7367106;19;20415;-68
2023/09/22 07:47:37;;;;;;;2.15;1.30;;;;;;;;;;7365691;19;20011;-71
2023/09/22 07:50:04;;;;;;;3.25;1.70;;;;;;;;;;7389389;19;20006;-68
2023/09/22 07:52:29;;;;;;;2.53;1.35;;;;;;;;;;7363119;19;20002;-68
2023/09/22 07:54:56;;;;;;;2.08;1.63;;;;;;;;;;7364673;19;20460;-69
2023/09/22 07:57:21;;;;;;;2.50;1.50;;;;;;;;;;7365485;19;19999;-69
2023/09/22 07:59:47;;;;;;;7.30;2.97;;;;;;;;;;7373577;19;20046;-68
2023/09/22 08:02:12;;;;;;;3.38;1.40;;;;;;;;;;7399580;19;19999;-67
2023/09/22 08:04:38;;;;;;;2.25;1.38;;;;;;;;;;7372645;19;20002;-68
2023/09/22 08:07:05;;;;;;;3.05;1.40;;;;;;;;;;7365010;19;20463;-68
2023/09/22 08:09:31;;;;;;;5.13;1.48;;;;;;;;;;7365406;19;20112;-68
2023/09/22 08:11:56;;;;;;;4.38;1.48;;;;;;;;;;7365277;19;20559;-68
2023/09/22 08:14:23;;;;;;;3.13;1.50;;;;;;;;;;7366929;19;20341;-68
2023/09/22 08:16:49;;;;;;;2.92;1.30;;;;;;;;;;7389003;19;19995;-68
2023/09/22 08:19:14;;;;;;;2.40;1.23;;;;;;;;;;7365584;19;20003;-68
2023/09/22 08:21:40;;;;;;;2.40;1.48;;;;;;;;;;7366066;19;20480;-68
2023/09/22 08:24:07;;;;;;;2.60;1.40;;;;;;;;;;7364726;19;20784;-68
2023/09/22 08:26:33;;;;;;;6.70;1.63;;;;;;;;;;7364788;19;20013;-68
2023/09/22 08:28:59;;;;;;;4.85;2.95;;;;;;;;;;7388761;19;20364;-69
2023/09/22 08:31:26;;;;;;;1.35;1.10;;;;;;;;;;7365069;19;20020;-68
2023/09/22 08:33:52;;;;;;;4.57;1.10;;;;;;;;;;7365134;19;20046;-68
2023/09/22 08:36:17;;;;;;;5.38;1.35;;;;;;;;;;7365094;19;20007;-68
2023/09/22 08:38:43;;;;;;;3.67;1.30;;;;;;;;;;7366607;19;20013;-69
2023/09/22 08:41:08;;;;;;;2.17;1.15;;;;;;;;;;7388008;19;20002;-69
2023/09/22 08:43:35;;;;;;;1.65;1.02;;;;;;;;;;7363571;19;20047;-69
2023/09/22 08:46:01;;;;;;;2.72;1.17;;;;;;;;;;7364566;19;20045;-69
2023/09/22 08:48:27;;;;;;;1.83;1.30;;;;;;;;;;7367202;19;20077;-68
2023/09/22 08:50:53;;;;;;;3.92;1.35;;;;;;;;;;7365621;19;20015;-68
2023/09/22 08:53:19;;;;;;;2.90;1.30;;;;;;;;;;7363564;19;20005;-67
2023/09/22 08:55:44;;;;;;;4.15;1.45;;;;;;;;;;7387835;19;20000;-67
2023/09/22 08:58:10;;;;;;;3.33;1.30;;;;;;;;;;7364883;19;20126;-68
2023/09/22 09:00:35;;;;;;;1.63;1.20;;;;;;;;;;7364964;19;20019;-68
2023/09/22 09:03:08;;;;;;;2.05;1.40;;;;;;;;;;7364005;19;20011;-68
2023/09/22 09:05:36;;;;;;;3.53;1.60;;;;;;;;;;7364963;19;20389;-71
2023/09/22 09:08:12;;;;;;;2.10;1.05;;;;;;;;;;7386350;19;20011;-68
2023/09/22 09:10:38;;;;;;;2.30;0.95;;;;;;;;;;7364551;19;20002;-69
2023/09/22 09:13:06;;;;;;;3.97;1.13;;;;;;;;;;7361086;19;20017;-68
2023/09/22 09:15:49;;;;;;;2.63;1.30;;;;;;;;;;7371490;19;20014;-67
2023/09/22 09:18:17;;;;;;;1.25;1.15;;;;;;;;;;7372726;19;20019;-68
2023/09/22 09:20:44;;;;;;;2.22;1.30;;;;;;;;;;7372966;19;20034;-68
2023/09/22 09:23:15;;;;;;;2.95;1.40;;;;;;;;;;7392827;19;20007;-67
2023/09/22 09:25:42;;;;;;;1.85;1.08;;;;;;;;;;7372261;19;20464;-67
2023/09/22 09:28:08;;;;;;;2.75;1.40;;;;;;;;;;7371421;19;20007;-68
2023/09/22 09:30:33;;;;;;;3.58;1.27;;;;;;;;;;7369758;19;20034;-68
2023/09/22 09:33:09;;;;;;;4.10;1.45;;;;;;;;;;7369328;19;20026;-68
2023/09/22 09:35:35;;;;;;;4.28;1.70;;;;;;;;;;7372193;19;20027;-67
2023/09/22 09:38:02;;;;;;;3.30;1.30;;;;;;;;;;7392970;19;20003;-67
2023/09/22 09:40:27;;;;;;;2.83;1.30;;;;;;;;;;7370978;19;20006;-67
2023/09/22 09:42:54;;;;;;;2.60;1.05;;;;;;;;;;7371285;19;20010;-67
2023/09/22 09:45:23;;;;;;;2.50;1.30;;;;;;;;;;7380473;19;20013;-67
2023/09/22 09:47:54;;;;;;;1.58;0.95;;;;;;;;;;7377372;19;20523;-68
2023/09/22 09:50:20;;;;;;;3.40;1.30;;;;;;;;;;7374311;19;20007;-68
2023/09/22 09:52:53;;;;;;;2.15;1.33;;;;;;;;;;7391848;19;20012;-68
2023/09/22 09:55:20;;;;;;;1.73;1.00;;;;;;;;;;7370757;19;20033;-69
2023/09/22 09:57:46;;;;;;;1.70;1.13;;;;;;;;;;7371366;19;20098;-67
2023/09/22 10:00:14;;;;;;;2.15;1.20;;;;;;;;;;7371188;19;20351;-69
2023/09/22 10:02:44;;;;;;;2.58;1.17;;;;;;;;;;7370056;19;20015;-67
2023/09/22 10:05:14;;;;;;;2.05;1.13;;;;;;;;;;7395595;19;20012;-67
2023/09/22 10:07:42;;;;;;;5.93;1.35;;;;;;;;;;7369357;19;20007;-68
2023/09/22 10:10:09;;;;;;;4.63;1.38;;;;;;;;;;7370102;19;20034;-68
2023/09/22 10:12:35;;;;;;;2.53;1.10;;;;;;;;;;7369771;19;20017;-68
2023/09/22 10:15:01;;;;;;;2.80;1.10;;;;;;;;;;7370848;19;20078;-68
2023/09/22 10:17:27;;;;;;;5.78;1.10;;;;;;;;;;7371789;19;19999;-68
2023/09/22 10:19:53;;;;;;;3.30;1.23;;;;;;;;;;7392907;19;20023;-67
2023/09/22 10:22:20;;;;;;;2.88;1.10;;;;;;;;;;7366116;19;20010;-67
2023/09/22 10:24:45;;;;;;;2.33;0.93;;;;;;;;;;7369770;19;20020;-68
2023/09/22 10:27:13;;;;;;;1.70;1.00;;;;;;;;;;7368015;19;20006;-67
2023/09/22 10:29:45;;;;;;;3.78;1.30;;;;;;;;;;7369257;19;20010;-67
2023/09/22 10:32:16;;;;;;;2.05;1.00;;;;;;;;;;7392254;19;20010;-68
2023/09/22 10:34:53;;;;;;;5.18;2.60;;;;;;;;;;7373375;19;20010;-69
2023/09/22 10:37:29;;;;;;;6.68;2.80;;;;;;;;;;7370793;19;20063;-68
2023/09/22 10:39:54;;;;;;;2.42;1.13;;;;;;;;;;7370549;19;20464;-68
2023/09/22 10:42:20;;;;;;;1.53;1.20;;;;;;;;;;7368972;19;20034;-68
2023/09/22 10:44:56;;;;;;;3.13;1.38;;;;;;;;;;7369977;19;20826;-68
2023/09/22 10:47:21;;;;;;;2.50;1.38;;;;;;;;;;7368353;19;20009;-68
2023/09/22 10:49:47;;;;;;;1.33;1.00;;;;;;;;;;7391226;19;20002;-67
2023/09/22 10:52:14;;;;;;;2.55;1.30;;;;;;;;;;7367753;19;20017;-68
2023/09/22 10:54:42;;;;;;;3.70;1.40;;;;;;;;;;7370335;19;20007;-68
2023/09/22 10:57:09;;;;;;;2.92;1.27;;;;;;;;;;7368998;19;20013;-68
2023/09/22 10:59:35;;;;;;;2.17;1.15;;;;;;;;;;7368887;19;20008;-68
2023/09/22 11:02:01;;;;;;;4.10;1.30;;;;;;;;;;7390123;19;20413;-68
2023/09/22 11:04:40;;;;;;;2.83;1.08;;;;;;;;;;7368624;19;19994;-68
2023/09/22 11:07:05;;;;;;;3.88;1.30;;;;;;;;;;7367724;19;20398;-68
2023/09/22 11:09:34;;;;;;;2.40;1.15;;;;;;;;;;7368686;19;20006;-67
2023/09/22 11:11:59;;;;;;;6.20;1.40;;;;;;;;;;7366926;19;20017;-67
2023/09/22 11:14:25;;;;;;;2.72;1.20;;;;;;;;;;7368963;19;20459;-68
2023/09/22 11:16:50;;;;;;;4.50;1.20;;;;;;;;;;7390759;19;20042;-68
2023/09/22 11:19:16;;;;;;;2.58;1.40;;;;;;;;;;7369503;19;20404;-67
2023/09/22 11:21:42;;;;;;;1.30;1.05;;;;;;;;;;7369428;19;20014;-67
2023/09/22 11:24:08;;;;;;;3.05;1.70;;;;;;;;;;7368607;19;20085;-71
2023/09/22 11:26:41;;;;;;;3.58;1.30;;;;;;;;;;7370496;19;20007;-68
2023/09/22 11:29:06;;;;;;;3.08;1.17;;;;;;;;;;7390786;19;20007;-69
2023/09/22 11:31:32;;;;;;;2.15;1.23;;;;;;;;;;7367942;19;20043;-69
2023/09/22 11:34:01;;;;;;;3.88;1.13;;;;;;;;;;7367950;19;20011;-68
2023/09/22 11:36:27;;;;;;;1.90;1.20;;;;;;;;;;7367311;19;20006;-68
2023/09/22 11:38:55;;;;;;;2.00;1.00;;;;;;;;;;7368471;19;20002;-68
2023/09/22 11:41:22;;;;;;;3.83;1.08;;;;;;;;;;7368031;19;20462;-68
2023/09/22 11:43:51;;;;;;;4.13;1.92;;;;;;;;;;7387236;19;20006;-67
2023/09/22 11:46:26;;;;;;;4.10;1.75;;;;;;;;;;7367970;19;20006;-69
2023/09/22 11:49:05;;;;;;;7.03;3.65;;;;;;;;;;7368770;19;20390;-67
2023/09/22 11:51:40;;;;;;;3.70;1.38;;;;;;;;;;7371089;19;20026;-68
2023/09/22 11:54:13;;;;;;;3.67;1.27;;;;;;;;;;7378797;19;20014;-67
2023/09/22 11:56:39;;;;;;;3.95;1.27;;;;;;;;;;7376748;19;20605;-67
2023/09/22 11:59:15;;;;;;;2.85;1.10;;;;;;;;;;7390949;19;20010;-68
2023/09/22 12:01:41;;;;;;;3.88;1.25;;;;;;;;;;7368291;19;20027;-68
2023/09/22 12:04:11;;;;;;;3.28;1.10;;;;;;;;;;7367017;19;20015;-68
2023/09/22 12:06:40;;;;;;;2.10;1.20;;;;;;;;;;7366352;19;20011;-68
2023/09/22 12:09:15;;;;;;;3.78;1.42;;;;;;;;;;7367750;19;20053;-68
2023/09/22 12:11:41;;;;;;;2.55;1.05;;;;;;;;;;7367023;19;20022;-68
2023/09/22 12:14:07;;;;;;;3.10;1.17;;;;;;;;;;7388734;19;19998;-68
2023/09/22 12:16:33;;;;;;;3.83;1.38;;;;;;;;;;7366769;19;20776;-69
2023/09/22 12:18:59;;;;;;;3.50;1.48;;;;;;;;;;7366844;19;20017;-68
2023/09/22 12:21:28;;;;;;;2.80;1.33;;;;;;;;;;7366364;19;20079;-67
2023/09/22 12:23:53;;;;;;;1.13;1.02;;;;;;;;;;7365813;19;20019;-69
2023/09/22 12:26:20;;;;;;;1.77;1.08;;;;;;;;;;7366748;19;20019;-67
2023/09/22 12:28:45;;;;;;;2.47;1.17;;;;;;;;;;7387983;19;20002;-67
2023/09/22 12:31:11;;;;;;;4.40;1.50;;;;;;;;;;7365672;19;20015;-67
2023/09/22 12:33:37;;;;;;;2.95;1.40;;;;;;;;;;7365194;19;20010;-67
2023/09/22 12:36:03;;;;;;;1.15;1.00;;;;;;;;;;7367499;19;20558;-68
2023/09/22 12:38:28;;;;;;;4.72;1.40;;;;;;;;;;7367507;19;20013;-68
2023/09/22 12:40:54;;;;;;;1.58;1.10;;;;;;;;;;7388720;19;20345;-70
2023/09/22 12:43:19;;;;;;;2.08;1.20;;;;;;;;;;7364306;19;20022;-68
2023/09/22 12:45:45;;;;;;;2.55;1.30;;;;;;;;;;7365731;19;20011;-67
2023/09/22 12:48:11;;;;;;;3.25;1.38;;;;;;;;;;7369477;19;20027;-67
2023/09/22 12:50:37;;;;;;;4.22;1.48;;;;;;;;;;7374376;19;20479;-67
2023/09/22 12:53:03;;;;;;;2.58;1.20;;;;;;;;;;7393406;19;20014;-68
2023/09/22 12:55:29;;;;;;;2.10;1.08;;;;;;;;;;7373356;19;20017;-68
2023/09/22 12:57:54;;;;;;;3.85;1.38;;;;;;;;;;7373347;19;20513;-68
2023/09/22 13:00:19;;;;;;;3.08;1.10;;;;;;;;;;7372684;19;20098;-69
2023/09/22 13:02:45;;;;;;;2.58;1.17;;;;;;;;;;7372209;19;20010;-68
2023/09/22 13:05:11;;;;;;;2.42;1.25;;;;;;;;;;7385362;19;20068;-69
2023/09/22 13:07:37;;;;;;;5.60;1.42;;;;;;;;;;7367564;19;20011;-69
2023/09/22 13:10:07;;;;;;;3.72;1.25;;;;;;;;;;7367429;19;20024;-69
2023/09/22 13:12:36;;;;;;;3.17;1.13;;;;;;;;;;7368486;19;19999;-69
2023/09/22 13:15:02;;;;;;;2.90;1.25;;;;;;;;;;7371725;19;20002;-69
2023/09/22 13:17:27;;;;;;;3.65;1.60;;;;;;;;;;7371629;19;20024;-70
2023/09/22 13:19:53;;;;;;;6.53;2.88;;;;;;;;;;7394070;19;20022;-68
2023/09/22 13:22:21;;;;;;;2.58;1.45;;;;;;;;;;7366040;19;20046;-69
2023/09/22 13:24:47;;;;;;;2.10;1.15;;;;;;;;;;7368626;19;20353;-68
2023/09/22 13:27:12;;;;;;;3.88;1.15;;;;;;;;;;7368655;19;20086;-62
2023/09/22 13:29:38;;;;;;;1.73;1.05;;;;;;;;;;7370510;19;20010;-69
2023/09/22 13:32:04;;;;;;;3.58;1.30;;;;;;;;;;7390808;19;19998;-69
2023/09/22 13:34:37;;;;;;;2.05;1.10;;;;;;;;;;7372682;19;19990;-69
2023/09/22 13:37:03;;;;;;;3.97;1.40;;;;;;;;;;7372782;19;20514;-69
2023/09/22 13:39:31;;;;;;;1.58;1.10;;;;;;;;;;7371228;19;20014;-69
2023/09/22 13:41:58;;;;;;;2.17;1.13;;;;;;;;;;7370684;19;20098;-70
2023/09/22 13:44:23;;;;;;;3.25;1.00;;;;;;;;;;7375682;19;20073;-68
2023/09/22 13:47:11;;;;;;;4.38;1.30;;;;;;;;;;7413891;19;19998;-69
2023/09/22 13:49:37;;;;;;;2.55;1.40;;;;;;;;;;7386029;19;20027;-69
2023/09/22 13:52:03;;;;;;;2.53;1.30;;;;;;;;;;7368304;19;20007;-69
2023/09/22 13:54:29;;;;;;;3.22;1.00;;;;;;;;;;7369348;19;20468;-69
2023/09/22 13:56:54;;;;;;;3.17;1.20;;;;;;;;;;7366304;19;20007;-69
2023/09/22 13:59:19;;;;;;;1.48;1.05;;;;;;;;;;7364100;19;20467;-69
2023/09/22 14:01:45;;;;;;;2.63;1.15;;;;;;;;;;7387938;19;19999;-69
2023/09/22 14:04:11;;;;;;;2.13;1.20;;;;;;;;;;7371677;19;20003;-69
2023/09/22 14:06:36;;;;;;;3.60;1.17;;;;;;;;;;7370165;19;20527;-70
2023/09/22 14:09:02;;;;;;;2.80;1.00;;;;;;;;;;7372158;19;20003;-69
2023/09/22 14:11:28;;;;;;;2.70;1.20;;;;;;;;;;7372590;19;20425;-69
2023/09/22 14:13:53;;;;;;;3.00;1.00;;;;;;;;;;7393368;19;20002;-68
2023/09/22 14:16:19;;;;;;;2.08;0.98;;;;;;;;;;7369844;19;20361;-69
2023/09/22 14:18:44;;;;;;;2.95;1.17;;;;;;;;;;7371848;19;20007;-69
2023/09/22 14:21:11;;;;;;;1.58;0.90;;;;;;;;;;7371123;19;20037;-68
2023/09/22 14:23:37;;;;;;;1.77;1.08;;;;;;;;;;7367489;19;20021;-69
2023/09/22 14:26:03;;;;;;;4.80;1.45;;;;;;;;;;7392952;19;20460;-68
2023/09/22 14:28:29;;;;;;;2.08;0.90;;;;;;;;;;7370270;19;20062;-69
2023/09/22 14:30:55;;;;;;;2.42;1.50;;;;;;;;;;7370584;19;20007;-69
2023/09/22 14:33:20;;;;;;;2.33;1.02;;;;;;;;;;7370283;19;20028;-69
2023/09/22 14:35:46;;;;;;;1.80;1.15;;;;;;;;;;7369307;19;20006;-69
2023/09/22 14:38:11;;;;;;;2.42;1.20;;;;;;;;;;7392707;19;19998;-69
2023/09/22 14:40:40;;;;;;;1.58;1.02;;;;;;;;;;7370079;19;20355;-69
2023/09/22 14:43:05;;;;;;;5.20;1.10;;;;;;;;;;7367947;19;20450;-69